Time;durP1;ratioP1;P1;durP2;ratioP2;P2;SDS_P1;SDS_P2;PMS_P1;PMS_P2;Temp;Humidity;BMP_temperature;BMP_pressure;BME280_temperature;BME280_humidity;BME280_pressure;Samples;Min_cycle;Max_cycle;Signal;HPM_P1;HPM_P2
2021/04/16 00:01:00;;;;;;;1.00;1.00;;;;;;;18.12;45.78;102783.16;5043145;28;20492;-45
2021/04/16 00:03:25;;;;;;;1.20;1.10;;;;;;;18.11;45.84;102773.50;5041851;28;20545;-47
2021/04/16 00:05:51;;;;;;;3.30;1.20;;;;;;;18.08;45.45;102777.56;5045824;28;20223;-47
2021/04/16 00:08:24;;;;;;;3.30;1.10;;;;;;;18.08;45.67;102771.38;5046919;28;20045;-44
2021/04/16 00:10:56;;;;;;;1.20;0.90;;;;;;;18.08;45.64;102774.06;5047028;28;20041;-44
2021/04/16 00:13:22;;;;;;;1.20;1.10;;;;;;;18.11;45.75;102773.50;5058658;28;20128;-48
2021/04/16 00:15:47;;;;;;;1.25;0.90;;;;;;;18.09;45.48;102776.44;5047463;28;20051;-45
2021/04/16 00:18:14;;;;;;;1.00;1.00;;;;;;;18.09;45.52;102771.06;5046713;28;20063;-45
2021/04/16 00:20:39;;;;;;;1.13;1.13;;;;;;;18.09;45.38;102776.44;5044143;28;20048;-46
2021/04/16 00:23:05;;;;;;;1.17;1.08;;;;;;;18.10;45.85;102767.31;5045153;28;20116;-46
2021/04/16 00:25:30;;;;;;;2.20;1.20;;;;;;;18.10;45.72;102775.38;5045916;28;20055;-44
2021/04/16 00:27:56;;;;;;;2.03;1.00;;;;;;;18.08;45.82;102766.78;5047558;28;20543;-45
2021/04/16 00:30:27;;;;;;;0.90;0.90;;;;;;;18.07;45.59;102759.00;5046119;28;20037;-45
2021/04/16 00:32:52;;;;;;;1.00;1.00;;;;;;;18.07;45.90;102757.09;5044883;28;20041;-45
2021/04/16 00:35:18;;;;;;;1.27;1.13;;;;;;;18.06;45.61;102760.88;5044779;28;20037;-45
2021/04/16 00:37:43;;;;;;;1.00;1.00;;;;;;;18.06;45.81;102750.09;5047011;28;20159;-44
2021/04/16 00:40:13;;;;;;;1.50;1.35;;;;;;;18.06;45.79;102755.50;5045599;28;20578;-44
2021/04/16 00:42:38;;;;;;;1.10;1.10;;;;;;;18.06;46.13;102744.72;5046758;28;20037;-45
2021/04/16 00:45:05;;;;;;;0.95;0.95;;;;;;;18.04;45.67;102749.59;5021294;28;20043;-44
2021/04/16 00:47:30;;;;;;;1.25;1.17;;;;;;;18.06;45.38;102741.25;5045435;28;20052;-44
2021/04/16 00:49:57;;;;;;;1.48;1.05;;;;;;;18.04;45.62;102743.41;5044973;28;20045;-46
2021/04/16 00:52:28;;;;;;;0.80;0.80;;;;;;;18.03;45.50;102742.59;5035290;28;20044;-46
2021/04/16 00:54:53;;;;;;;0.98;0.98;;;;;;;18.02;45.74;102741.03;5057886;28;20068;-46
2021/04/16 00:57:18;;;;;;;1.20;1.20;;;;;;;18.01;45.39;102734.03;5036360;28;20571;-44
2021/04/16 00:59:52;;;;;;;0.88;0.88;;;;;;;18.01;45.40;102734.03;5027704;28;20044;-48
2021/04/16 01:02:17;;;;;;;0.90;0.90;;;;;;;18.00;45.32;102732.44;5047601;28;20041;-43
2021/04/16 01:04:43;;;;;;;1.45;0.80;;;;;;;18.00;45.26;102740.50;5046446;28;20174;-44
2021/04/16 01:07:08;;;;;;;1.00;1.00;;;;;;;18.00;45.75;102729.75;5046345;28;20048;-46
2021/04/16 01:09:34;;;;;;;0.95;0.95;;;;;;;17.99;45.19;102725.44;5035611;28;20068;-46
2021/04/16 01:12:01;;;;;;;0.70;0.70;;;;;;;17.99;45.30;102728.13;5042827;28;20397;-44
2021/04/16 01:14:26;;;;;;;0.70;0.70;;;;;;;18.00;45.47;102737.00;5054104;28;20045;-45
2021/04/16 01:16:52;;;;;;;1.00;1.00;;;;;;;17.99;45.42;102728.13;5047414;28;20506;-47
2021/04/16 01:19:27;;;;;;;0.90;0.90;;;;;;;17.99;45.56;102730.00;5018273;28;20032;-45
2021/04/16 01:21:59;;;;;;;1.05;1.00;;;;;;;18.00;45.26;102724.38;5037842;28;20131;-44
2021/04/16 01:24:31;;;;;;;1.02;0.90;;;;;;;17.98;45.50;102728.44;5035615;28;20121;-48
2021/04/16 01:26:57;;;;;;;1.00;0.88;;;;;;;17.98;45.24;102720.38;5043646;28;20044;-45
2021/04/16 01:29:22;;;;;;;1.33;1.00;;;;;;;17.96;45.08;102719.81;5045549;28;20112;-44
2021/04/16 01:31:48;;;;;;;0.90;0.90;;;;;;;17.95;45.52;102721.69;5044153;28;20376;-44
2021/04/16 01:34:33;;;;;;;1.08;0.80;;;;;;;17.96;45.22;102727.88;5045572;28;20583;-46
2021/04/16 01:36:59;;;;;;;0.82;0.82;;;;;;;17.94;45.28;102724.69;5044391;28;20128;-44
2021/04/16 01:39:25;;;;;;;7.05;0.98;;;;;;;17.94;45.32;102728.19;5043556;28;20421;-52
2021/04/16 01:41:50;;;;;;;0.90;0.90;;;;;;;17.93;45.21;102726.56;5046179;28;20037;-44
2021/04/16 01:44:17;;;;;;;0.77;0.75;;;;;;;17.94;45.29;102730.88;5043715;28;20496;-43
2021/04/16 01:46:57;;;;;;;0.80;0.80;;;;;;;17.93;45.18;102723.06;5043509;28;20518;-46
2021/04/16 01:49:24;;;;;;;0.75;0.75;;;;;;;17.92;45.19;102730.38;5046517;28;20086;-49
2021/04/16 01:51:50;;;;;;;2.40;0.98;;;;;;;17.92;45.45;102719.63;5045402;28;20128;-48
2021/04/16 01:54:22;;;;;;;0.93;0.88;;;;;;;17.92;45.18;102721.50;5044935;28;20112;-48
2021/04/16 01:56:49;;;;;;;1.75;0.90;;;;;;;17.92;45.19;102716.13;5043766;28;20479;-48
2021/04/16 01:59:18;;;;;;;1.23;0.82;;;;;;;17.92;45.40;102721.50;5044084;28;20041;-48
2021/04/16 02:01:43;;;;;;;0.90;0.80;;;;;;;17.92;44.94;102724.19;5043917;28;20075;-45
2021/04/16 02:04:10;;;;;;;1.27;0.98;;;;;;;17.92;44.98;102722.31;5043560;28;20044;-45
2021/04/16 02:06:35;;;;;;;0.57;0.57;;;;;;;17.90;45.07;102727.13;5045356;28;20095;-49
2021/04/16 02:09:04;;;;;;;0.93;0.93;;;;;;;17.91;44.82;102727.94;5043083;28;20789;-42
2021/04/16 02:11:29;;;;;;;0.75;0.75;;;;;;;17.88;45.17;102728.50;5026300;28;20425;-45
2021/04/16 02:13:54;;;;;;;0.70;0.70;;;;;;;17.87;44.97;102722.31;5045496;28;20037;-44
2021/04/16 02:16:20;;;;;;;1.45;0.90;;;;;;;17.88;45.06;102720.44;5042221;28;22260;-48
2021/04/16 02:18:45;;;;;;;0.70;0.70;;;;;;;17.87;44.98;102721.56;5042539;28;20040;-45
2021/04/16 02:21:11;;;;;;;0.82;0.82;;;;;;;17.87;45.09;102724.25;5041959;28;20060;-46
2021/04/16 02:23:36;;;;;;;0.88;0.80;;;;;;;17.88;44.89;102723.13;5044883;28;20501;-46
2021/04/16 02:26:01;;;;;;;0.98;0.98;;;;;;;17.86;44.92;102726.13;5043413;28;20082;-45
2021/04/16 02:28:27;;;;;;;0.90;0.90;;;;;;;17.85;44.46;102711.06;5043456;28;20041;-44
2021/04/16 02:30:52;;;;;;;1.05;0.98;;;;;;;17.84;44.77;102720.19;5042705;28;20045;-44
2021/04/16 02:33:17;;;;;;;2.75;0.80;;;;;;;17.86;44.73;102715.38;5044181;28;20095;-44
2021/04/16 02:35:43;;;;;;;2.80;0.90;;;;;;;17.86;44.95;102723.44;5043574;28;21194;-44
2021/04/16 02:38:08;;;;;;;0.80;0.80;;;;;;;17.85;44.89;102715.63;5044260;28;20045;-44
2021/04/16 02:40:33;;;;;;;4.63;0.70;;;;;;;17.84;44.82;102720.19;5044664;28;20133;-46
2021/04/16 02:42:59;;;;;;;0.80;0.80;;;;;;;17.83;44.60;102715.13;5043508;28;20051;-45
2021/04/16 02:45:25;;;;;;;1.02;0.80;;;;;;;17.83;44.82;102717.81;5042251;28;20483;-44
2021/04/16 02:47:50;;;;;;;0.70;0.70;;;;;;;17.86;44.91;102719.94;5042864;28;20503;-46
2021/04/16 02:50:18;;;;;;;1.20;1.20;;;;;;;17.83;44.49;102723.19;5042997;28;20056;-45
2021/04/16 02:52:44;;;;;;;0.88;0.88;;;;;;;17.82;44.82;102711.63;5043665;28;20086;-44
2021/04/16 02:55:09;;;;;;;0.85;0.85;;;;;;;17.82;44.76;102711.63;5043487;28;20028;-44
2021/04/16 02:57:35;;;;;;;0.80;0.80;;;;;;;17.81;44.67;102715.41;5042852;28;20151;-45
2021/04/16 03:00:00;;;;;;;0.80;0.80;;;;;;;17.80;44.56;102704.94;5042457;28;20040;-45
2021/04/16 03:02:26;;;;;;;1.30;0.70;;;;;;;17.82;44.71;102706.25;5025651;28;20044;-45
2021/04/16 03:04:51;;;;;;;0.63;0.63;;;;;;;17.81;44.76;102707.34;5044321;28;20517;-47
2021/04/16 03:07:16;;;;;;;1.30;0.80;;;;;;;17.81;44.72;102709.22;5041518;28;20524;-44
2021/04/16 03:09:42;;;;;;;1.17;0.75;;;;;;;17.79;44.82;102712.19;5044572;28;20045;-47
2021/04/16 03:12:07;;;;;;;1.90;0.80;;;;;;;17.79;44.66;102703.34;5041510;28;20049;-44
2021/04/16 03:14:33;;;;;;;0.73;0.73;;;;;;;17.79;44.45;102711.41;5042545;28;20063;-44
2021/04/16 03:16:58;;;;;;;0.90;0.90;;;;;;;17.80;44.76;102710.31;5040594;28;20047;-44
2021/04/16 03:19:24;;;;;;;0.82;0.82;;;;;;;17.79;44.83;102706.81;5041453;28;20040;-44
2021/04/16 03:21:49;;;;;;;0.73;0.73;;;;;;;17.78;44.84;102705.22;5043973;28;20055;-44
2021/04/16 03:24:14;;;;;;;1.38;1.00;;;;;;;17.77;44.51;102698.22;5041492;28;20041;-44
2021/04/16 03:26:40;;;;;;;2.28;0.98;;;;;;;17.77;44.78;102700.91;5042487;28;20086;-45
2021/04/16 03:29:05;;;;;;;0.90;0.90;;;;;;;17.78;44.70;102705.22;5042833;28;20045;-45
2021/04/16 03:31:30;;;;;;;0.77;0.73;;;;;;;17.76;44.64;102700.13;5042877;28;20041;-45
2021/04/16 03:33:56;;;;;;;0.60;0.60;;;;;;;17.79;44.57;102706.03;5045793;28;20124;-44
2021/04/16 03:36:22;;;;;;;0.80;0.80;;;;;;;17.78;44.34;102699.84;5043493;28;20430;-45
2021/04/16 03:38:48;;;;;;;0.75;0.75;;;;;;;17.77;44.44;102696.34;5043684;28;20040;-45
2021/04/16 03:41:14;;;;;;;1.00;0.90;;;;;;;17.76;44.64;102696.63;5042008;28;20037;-50
2021/04/16 03:43:40;;;;;;;0.88;0.85;;;;;;;17.76;44.75;102692.03;5044053;28;20503;-45
2021/04/16 03:46:05;;;;;;;0.85;0.80;;;;;;;17.76;44.58;102694.75;5040430;28;20032;-46
2021/04/16 03:48:31;;;;;;;1.20;0.85;;;;;;;17.77;44.32;102698.22;5043361;28;20128;-44
2021/04/16 03:50:56;;;;;;;1.17;0.95;;;;;;;17.75;44.62;102701.22;5043507;28;20093;-44
2021/04/16 03:53:22;;;;;;;0.70;0.70;;;;;;;17.75;44.35;102697.72;5041757;28;20068;-45
2021/04/16 03:55:47;;;;;;;0.80;0.80;;;;;;;17.76;44.55;102705.50;5044285;28;20052;-44
2021/04/16 03:58:12;;;;;;;2.25;0.80;;;;;;;17.74;44.23;102698.78;5043371;28;20036;-51
2021/04/16 04:00:39;;;;;;;0.70;0.70;;;;;;;17.75;44.52;102698.53;5043623;28;20118;-44
2021/04/16 04:03:05;;;;;;;0.90;0.90;;;;;;;17.74;44.62;102693.41;5042002;28;20057;-47
2021/04/16 04:05:31;;;;;;;0.70;0.70;;;;;;;17.75;44.61;102698.53;5042158;28;20037;-44
2021/04/16 04:07:56;;;;;;;0.70;0.70;;;;;;;17.75;44.68;102695.84;5043412;28;20052;-45
2021/04/16 04:10:23;;;;;;;0.85;0.85;;;;;;;17.75;44.64;102697.72;5041896;28;20045;-47
2021/04/16 04:12:48;;;;;;;1.20;1.00;;;;;;;17.75;44.29;102692.34;5043656;28;20377;-45
2021/04/16 04:15:15;;;;;;;0.75;0.75;;;;;;;17.76;44.56;102699.31;5040100;28;20098;-44
2021/04/16 04:17:40;;;;;;;2.28;0.80;;;;;;;17.75;44.63;102708.47;5067949;28;20045;-45
2021/04/16 04:20:26;;;;;;;0.77;0.77;;;;;;;17.76;44.32;102699.31;5041552;28;20102;-43
2021/04/16 04:22:51;;;;;;;0.82;0.82;;;;;;;17.76;44.50;102702.81;5042119;28;20086;-46
2021/04/16 04:25:18;;;;;;;1.58;0.90;;;;;;;17.75;44.74;102703.91;5040283;28;20045;-44
2021/04/16 04:27:43;;;;;;;0.90;0.90;;;;;;;17.76;44.21;102699.31;5022685;28;20041;-44
2021/04/16 04:30:09;;;;;;;0.90;0.90;;;;;;;17.74;44.24;102699.59;5037733;28;20051;-47
2021/04/16 04:32:34;;;;;;;0.73;0.73;;;;;;;17.75;44.64;102705.78;5043197;28;20443;-45
2021/04/16 04:35:00;;;;;;;0.90;0.90;;;;;;;17.76;44.18;102707.38;5046156;28;20041;-45
2021/04/16 04:37:25;;;;;;;1.58;0.70;;;;;;;17.76;44.21;102699.31;5044125;28;20482;-44
2021/04/16 04:39:50;;;;;;;0.80;0.80;;;;;;;17.75;44.32;102706.59;5046121;28;20032;-46
2021/04/16 04:42:16;;;;;;;0.90;0.88;;;;;;;17.73;44.52;102699.91;5044534;28;20043;-48
2021/04/16 04:44:41;;;;;;;3.75;0.93;;;;;;;17.72;44.16;102704.47;5053197;28;20037;-48
2021/04/16 04:47:08;;;;;;;1.85;1.00;;;;;;;17.72;44.21;102706.34;5041765;28;20431;-44
2021/04/16 04:49:33;;;;;;;1.33;0.95;;;;;;;17.70;44.15;102697.78;5040955;28;20065;-47
2021/04/16 04:52:16;;;;;;;1.25;1.00;;;;;;;17.68;44.19;102705.31;5041577;28;20040;-48
2021/04/16 04:54:48;;;;;;;1.23;1.13;;;;;;;17.67;43.70;102695.66;5046325;28;20513;-45
2021/04/16 04:57:15;;;;;;;17.38;1.55;;;;;;;17.66;44.02;102692.16;5044730;28;20079;-49
2021/04/16 04:59:41;;;;;;;0.70;0.70;;;;;;;17.65;43.56;102693.22;5046121;28;20110;-49
2021/04/16 05:02:07;;;;;;;0.88;0.68;;;;;;;17.65;43.93;102706.66;5046315;28;20036;-45
2021/04/16 05:04:32;;;;;;;1.00;1.00;;;;;;;17.65;43.70;102711.28;5050330;28;21037;-45
2021/04/16 05:06:57;;;;;;;1.13;0.90;;;;;;;17.63;43.62;102708.03;5043697;28;20045;-45
2021/04/16 05:09:23;;;;;;;0.90;0.90;;;;;;;17.64;43.82;102701.59;5041974;28;21244;-48
2021/04/16 05:11:48;;;;;;;0.80;0.80;;;;;;;17.64;43.95;102712.34;5043993;28;20128;-45
2021/04/16 05:14:13;;;;;;;0.90;0.90;;;;;;;17.64;43.67;102706.97;5030056;28;20405;-47
2021/04/16 05:16:39;;;;;;;2.35;0.90;;;;;;;17.63;43.90;102713.41;5045148;28;20044;-46
2021/04/16 05:19:04;;;;;;;0.90;0.90;;;;;;;17.62;44.15;102703.78;5045222;28;20407;-45
2021/04/16 05:21:30;;;;;;;3.75;1.08;;;;;;;17.62;44.09;102695.69;5042118;28;20045;-46
2021/04/16 05:23:56;;;;;;;1.73;1.15;;;;;;;17.59;43.90;102698.94;5045833;28;20521;-46
2021/04/16 05:26:26;;;;;;;1.38;0.90;;;;;;;17.57;44.02;102709.16;5031542;28;20075;-45
2021/04/16 05:28:51;;;;;;;0.80;0.80;;;;;;;17.56;44.26;102711.06;5044696;28;20507;-44
2021/04/16 05:31:17;;;;;;;2.72;1.00;;;;;;;17.55;43.90;102706.78;5046291;28;20071;-46
2021/04/16 05:33:42;;;;;;;0.93;0.90;;;;;;;17.54;43.66;102707.84;5045646;28;20411;-47
2021/04/16 05:36:07;;;;;;;2.05;1.10;;;;;;;17.52;43.82;102709.19;5027136;28;20056;-47
2021/04/16 05:38:33;;;;;;;1.42;0.95;;;;;;;17.53;43.97;102710.78;5045100;28;20048;-48
2021/04/16 05:40:58;;;;;;;1.73;0.90;;;;;;;17.53;43.74;102714.31;5042975;28;20090;-45
2021/04/16 05:43:24;;;;;;;3.45;1.10;;;;;;;17.52;43.90;102701.94;5044572;28;20051;-46
2021/04/16 05:45:49;;;;;;;1.58;1.02;;;;;;;17.50;44.11;102703.28;5023568;28;20037;-46
2021/04/16 05:48:14;;;;;;;2.60;1.00;;;;;;;17.47;44.29;102710.03;5048749;28;20093;-46
2021/04/16 05:50:40;;;;;;;1.85;1.00;;;;;;;17.47;44.19;102703.84;5048795;28;20040;-46
2021/04/16 05:53:05;;;;;;;4.00;1.30;;;;;;;17.46;44.65;102700.34;5046900;28;20071;-46
2021/04/16 05:55:30;;;;;;;2.40;1.20;;;;;;;17.46;44.14;102705.72;5045922;28;20162;-47
2021/04/16 05:57:57;;;;;;;1.30;1.15;;;;;;;17.43;44.63;102700.16;5043688;28;20037;-45
2021/04/16 06:00:22;;;;;;;1.30;1.00;;;;;;;17.44;44.36;102707.91;5039577;28;20407;-46
2021/04/16 06:02:48;;;;;;;1.38;1.27;;;;;;;17.43;44.61;102706.28;5037000;28;20056;-45
2021/04/16 06:05:15;;;;;;;1.98;1.23;;;;;;;17.49;46.51;102705.19;5049480;28;20037;-45
2021/04/16 06:07:41;;;;;;;6.18;1.88;;;;;;;17.52;47.23;102714.56;5043883;28;20099;-49
2021/04/16 06:10:08;;;;;;;4.30;2.55;;;;;;;17.52;48.56;102712.69;5037628;28;20037;-46
2021/04/16 06:12:34;;;;;;;4.18;2.08;;;;;;;17.53;50.35;102714.31;5014483;28;20048;-49
2021/04/16 06:15:00;;;;;;;5.55;1.90;;;;;;;17.52;50.42;102712.69;5039484;28;20527;-47
2021/04/16 06:17:25;;;;;;;1.88;1.40;;;;;;;17.51;49.82;102712.97;5041120;28;20067;-46
2021/04/16 06:19:50;;;;;;;3.30;2.00;;;;;;;17.49;49.72;102720.50;5051026;28;20041;-46
2021/04/16 06:22:18;;;;;;;1.88;1.67;;;;;;;17.49;49.23;102713.25;5049889;28;20418;-50
2021/04/16 06:24:43;;;;;;;2.50;1.60;;;;;;;17.48;48.64;102717.03;5050862;28;20052;-48
2021/04/16 06:27:08;;;;;;;2.38;1.38;;;;;;;17.48;48.99;102716.22;5048212;28;20041;-48
2021/04/16 06:29:34;;;;;;;1.73;1.63;;;;;;;17.48;48.64;102713.53;5026614;28;20037;-46
2021/04/16 06:31:59;;;;;;;1.45;1.30;;;;;;;17.49;48.37;102717.81;5044565;28;20040;-44
2021/04/16 06:34:25;;;;;;;2.05;1.92;;;;;;;17.47;48.24;102719.97;5044934;28;20748;-47
2021/04/16 06:36:50;;;;;;;1.33;1.33;;;;;;;17.46;47.99;102719.19;5044378;28;20037;-47
2021/04/16 06:39:16;;;;;;;2.63;1.50;;;;;;;17.46;47.63;102726.47;5029258;28;20028;-46
2021/04/16 06:41:41;;;;;;;2.97;1.75;;;;;;;17.46;47.88;102721.84;5043255;28;20036;-44
2021/04/16 06:44:14;;;;;;;3.70;1.65;;;;;;;17.46;47.44;102723.78;5006196;28;20043;-45
2021/04/16 06:46:45;;;;;;;2.97;1.50;;;;;;;17.44;47.39;102732.09;5040435;28;20055;-45
2021/04/16 06:49:18;;;;;;;1.58;1.40;;;;;;;17.43;47.07;102724.34;5038788;28;20045;-45
2021/04/16 06:52:06;;;;;;;1.60;1.42;;;;;;;17.45;47.14;102720.28;5038838;28;20383;-44
2021/04/16 06:54:49;;;;;;;1.33;1.23;;;;;;;17.45;46.78;102722.16;5038802;28;20037;-46
2021/04/16 06:57:25;;;;;;;2.88;1.30;;;;;;;17.51;47.41;102726.41;5024114;28;20048;-47
2021/04/16 06:59:58;;;;;;;1.50;1.33;;;;;;;17.49;47.13;102729.38;5040092;28;20037;-46
2021/04/16 07:02:23;;;;;;;4.80;1.90;;;;;;;17.49;47.06;102721.31;5029563;28;20037;-45
2021/04/16 07:04:53;;;;;;;10.98;1.75;;;;;;;17.49;47.13;102724.00;5027742;28;20047;-46
2021/04/16 07:07:42;;;;;;;11.40;2.05;;;;;;;17.50;47.44;102725.59;5051834;28;20075;-45
2021/04/16 07:10:31;;;;;;;11.35;2.15;;;;;;;17.51;47.13;102726.41;5043656;28;21117;-47
2021/04/16 07:12:57;;;;;;;7.65;1.80;;;;;;;17.52;46.89;102723.44;5038186;28;20065;-47
2021/04/16 07:15:30;;;;;;;7.85;2.25;;;;;;;17.48;46.87;102726.97;5041248;28;20066;-47
2021/04/16 07:17:56;;;;;;;6.25;1.75;;;;;;;17.47;46.59;102726.16;5039630;28;20044;-47
2021/04/16 07:20:23;;;;;;;6.20;2.17;;;;;;;17.45;46.49;102722.97;5040895;28;20095;-45
2021/04/16 07:22:53;;;;;;;4.32;2.00;;;;;;;17.47;46.62;102722.66;5025348;28;20040;-47
2021/04/16 07:25:33;;;;;;;2.75;1.95;;;;;;;17.49;46.38;102725.88;5045134;28;20082;-46
2021/04/16 07:28:06;;;;;;;5.47;2.00;;;;;;;17.48;46.23;102725.09;5043579;28;20044;-46
2021/04/16 07:30:45;;;;;;;2.90;1.80;;;;;;;17.49;46.10;102721.31;5046164;28;20323;-43
2021/04/16 07:33:38;;;;;;;4.22;2.00;;;;;;;17.50;45.89;102711.34;5043796;28;20506;-43
2021/04/16 07:36:19;;;;;;;4.57;1.63;;;;;;;17.49;45.77;102710.56;5039044;28;20041;-43
2021/04/16 07:38:57;;;;;;;3.67;2.00;;;;;;;17.51;45.99;102705.69;5069981;28;20070;-45
2021/04/16 07:41:23;;;;;;;2.83;1.50;;;;;;;17.54;45.63;102705.16;5042633;28;20067;-44
2021/04/16 07:43:52;;;;;;;3.28;1.50;;;;;;;17.54;45.84;102702.47;5027302;28;20033;-42
2021/04/16 07:46:26;;;;;;;1.85;1.58;;;;;;;17.55;45.83;102704.09;5040876;28;20124;-43
2021/04/16 07:48:52;;;;;;;1.50;1.40;;;;;;;17.56;45.84;102707.59;5040599;28;20045;-43
2021/04/16 07:51:31;;;;;;;2.80;1.80;;;;;;;17.56;45.65;102710.28;5041826;28;20041;-44
2021/04/16 07:54:14;;;;;;;1.70;1.40;;;;;;;17.57;45.87;102711.84;5039671;28;20052;-43
2021/04/16 07:56:39;;;;;;;1.80;1.35;;;;;;;17.59;45.57;102717.78;5039482;28;20055;-43
2021/04/16 07:59:11;;;;;;;3.58;1.60;;;;;;;17.59;45.66;102707.03;5043465;28;20029;-43
2021/04/16 08:01:38;;;;;;;1.92;1.40;;;;;;;17.59;45.64;102710.50;5041021;28;20044;-45
2021/04/16 08:04:12;;;;;;;1.20;1.10;;;;;;;17.62;45.74;102711.84;5043599;28;20135;-46
2021/04/16 08:06:39;;;;;;;;;;;;;;;17.62;45.76;102709.16;5044749;28;20053;-43
2021/04/16 08:09:25;;;;;;;3.47;1.52;;;;;;;17.63;45.54;102716.09;5031478;28;19925;-43
2021/04/16 08:12:11;;;;;;;3.30;1.40;;;;;;;17.65;45.42;102708.59;5042694;28;20064;-42
2021/04/16 08:14:41;;;;;;;1.73;1.42;;;;;;;17.67;45.50;102699.16;5035697;28;20048;-52
2021/04/16 08:17:25;;;;;;;1.42;1.27;;;;;;;17.66;45.49;102710.16;5044348;28;20075;-44
2021/04/16 08:19:51;;;;;;;1.70;1.60;;;;;;;17.67;45.19;102712.59;5038127;28;20427;-49
2021/04/16 08:22:29;;;;;;;2.03;1.45;;;;;;;17.67;45.47;102714.47;5045891;28;20045;-45
2021/04/16 08:25:04;;;;;;;1.10;1.10;;;;;;;17.65;45.07;102706.66;5047631;28;20041;-46
2021/04/16 08:27:36;;;;;;;;;;;;;;;17.68;45.11;102697.25;5040811;28;20082;-45
2021/04/16 08:30:15;;;;;;;1.25;1.15;;;;;;;17.67;44.86;102715.28;5047412;28;19956;-43
2021/04/16 08:32:45;;;;;;;1.13;1.13;;;;;;;17.69;44.78;102704.22;5043259;28;20050;-43
2021/04/16 08:35:25;;;;;;;1.08;1.08;;;;;;;17.68;44.80;102699.94;5031784;28;20041;-44
2021/04/16 08:37:55;;;;;;;4.28;1.50;;;;;;;17.67;44.69;102693.78;5033179;28;20459;-42
2021/04/16 08:40:30;;;;;;;1.40;1.30;;;;;;;17.68;44.91;102695.34;5027822;28;20517;-44
2021/04/16 08:42:57;;;;;;;1.58;1.48;;;;;;;17.68;44.67;102703.41;5033902;28;20037;-45
2021/04/16 08:45:23;;;;;;;1.42;1.33;;;;;;;17.70;44.75;102697.78;5035867;28;20037;-43
2021/04/16 08:47:51;;;;;;;2.08;1.00;;;;;;;17.70;44.55;102703.94;5044080;28;20550;-40
2021/04/16 08:50:17;;;;;;;1.08;1.08;;;;;;;17.70;44.36;102692.41;5048156;28;20079;-41
2021/04/16 08:53:09;;;;;;;1.38;1.27;;;;;;;17.69;44.55;102696.16;5032201;28;20044;-41
2021/04/16 08:55:38;;;;;;;1.25;1.15;;;;;;;17.69;44.49;102694.28;5033587;28;20060;-41
2021/04/16 08:58:09;;;;;;;0.98;0.98;;;;;;;17.69;44.19;102691.59;5046854;28;20048;-41
2021/04/16 09:00:53;;;;;;;1.20;1.10;;;;;;;17.67;43.98;102691.09;5043211;28;20091;-41
2021/04/16 09:03:20;;;;;;;1.25;1.15;;;;;;;17.71;43.63;102685.91;5042064;28;20032;-42
2021/04/16 09:05:59;;;;;;;0.80;0.80;;;;;;;17.67;43.33;102691.09;5036873;28;20080;-42
2021/04/16 09:08:36;;;;;;;1.23;1.20;;;;;;;17.68;43.79;102681.09;5044321;28;20049;-42
2021/04/16 09:11:02;;;;;;;1.30;1.10;;;;;;;17.69;43.36;102690.78;5041446;28;20037;-42
2021/04/16 09:13:40;;;;;;;1.08;1.08;;;;;;;17.68;43.38;102689.97;5035918;28;20126;-42
2021/04/16 09:16:14;;;;;;;1.27;1.10;;;;;;;17.71;43.17;102685.91;5042341;28;20040;-42
2021/04/16 09:18:40;;;;;;;1.00;1.00;;;;;;;17.70;43.00;102682.41;5066545;28;20068;-41
2021/04/16 09:21:05;;;;;;;1.48;1.20;;;;;;;17.69;43.31;102674.66;5028769;28;20056;-42
2021/04/16 09:23:33;;;;;;;1.10;1.10;;;;;;;17.68;43.02;102684.59;5046088;28;20130;-41
2021/04/16 09:25:58;;;;;;;0.80;0.80;;;;;;;17.74;42.61;102677.28;5043135;28;20029;-42
2021/04/16 09:28:24;;;;;;;1.00;1.00;;;;;;;17.75;42.92;102677.03;5043256;28;20033;-44
2021/04/16 09:30:53;;;;;;;1.00;1.00;;;;;;;17.77;42.83;102682.09;5041756;28;20041;-43
2021/04/16 09:33:24;;;;;;;0.85;0.85;;;;;;;17.75;43.11;102670.84;5063172;28;20037;-42
2021/04/16 09:36:06;;;;;;;1.77;1.20;;;;;;;17.77;42.47;102676.72;5042447;28;20044;-41
2021/04/16 09:38:54;;;;;;;0.90;0.90;;;;;;;17.76;42.91;102675.91;5032542;28;20044;-42
2021/04/16 09:41:19;;;;;;;1.00;1.00;;;;;;;17.74;42.69;102659.28;5047781;28;20494;-45
2021/04/16 09:43:51;;;;;;;0.82;0.82;;;;;;;17.76;42.91;102664.34;5045435;28;20072;-42
2021/04/16 09:46:31;;;;;;;1.00;1.00;;;;;;;17.80;42.27;102656.53;5063818;28;20246;-41
2021/04/16 09:49:26;;;;;;;1.70;1.13;;;;;;;17.79;42.76;102661.09;5045780;28;20041;-43
2021/04/16 09:51:52;;;;;;;0.85;0.85;;;;;;;17.79;42.49;102657.63;5024223;28;20048;-43
2021/04/16 09:54:20;;;;;;;1.10;1.10;;;;;;;17.81;42.23;102653.56;5043515;28;20369;-42
2021/04/16 09:57:01;;;;;;;1.27;1.10;;;;;;;17.81;42.50;102650.06;5041031;28;20463;-41
2021/04/16 09:59:26;;;;;;;1.25;1.13;;;;;;;17.83;42.14;102659.44;5043527;28;20067;-43
2021/04/16 10:02:19;;;;;;;1.10;1.00;;;;;;;17.81;42.15;102637.44;5046446;28;20037;-42
2021/04/16 10:05:18;;;;;;;1.08;1.08;;;;;;;17.84;41.96;102650.28;5028628;28;20033;-42
2021/04/16 10:07:50;;;;;;;1.30;1.17;;;;;;;17.85;41.91;102645.72;5043609;28;20043;-41
2021/04/16 10:10:26;;;;;;;1.05;0.93;;;;;;;17.87;42.09;102651.63;5044311;28;20055;-43
2021/04/16 10:13:21;;;;;;;1.55;1.08;;;;;;;17.89;42.08;102660.19;5044641;28;20056;-41
2021/04/16 10:15:54;;;;;;;1.75;1.40;;;;;;;17.91;43.02;102645.38;5042474;28;20041;-42
2021/04/16 10:18:33;;;;;;;3.03;1.00;;;;;;;17.90;43.69;102641.06;5045617;28;20418;-43
2021/04/16 10:21:14;;;;;;;3.00;1.10;;;;;;;17.89;43.67;102639.50;5043370;28;20101;-45
2021/04/16 10:23:50;;;;;;;2.38;1.13;;;;;;;17.89;43.44;102639.50;5043905;28;20041;-42
2021/04/16 10:27:23;;;;;;;1.42;1.30;;;;;;;17.89;43.09;102636.81;5043879;28;20083;-41
2021/04/16 10:50:58;;;;;;;1.00;0.90;;;;;;;17.97;42.30;102613.84;5043281;28;20071;-46
2021/04/16 11:19:42;;;;;;;;;;;;;;;18.06;42.44;102583.31;5037292;28;20606;-44
2021/04/16 11:31:20;;;;;;;2.65;0.90;;;;;;;18.10;42.00;102584.34;5041325;28;20064;-41
2021/04/16 11:33:58;;;;;;;0.80;0.80;;;;;;;18.13;41.42;102575.69;5039013;28;20491;-42
2021/04/16 12:39:18;;;;;;;0.88;0.88;;;;;;;18.40;41.44;102537.38;5043438;28;20086;-43
2021/04/16 12:41:48;;;;;;;1.58;0.80;;;;;;;18.43;41.01;102531.41;5046347;28;20087;-42
2021/04/16 12:44:25;;;;;;;2.05;0.90;;;;;;;18.44;41.43;102526.81;5018019;28;20048;-43
2021/04/16 12:46:51;;;;;;;1.65;0.93;;;;;;;18.45;41.89;102529.22;5038899;28;20045;-50
2021/04/16 12:49:16;;;;;;;2.67;1.00;;;;;;;18.45;41.63;102517.63;5032656;28;20406;-42
2021/04/16 12:51:42;;;;;;;2.78;0.90;;;;;;;18.47;41.67;102513.56;5069987;28;20036;-43
2021/04/16 12:54:07;;;;;;;0.90;0.90;;;;;;;18.48;41.64;102525.97;5051570;28;20037;-44
2021/04/16 12:56:34;;;;;;;0.70;0.70;;;;;;;18.47;41.58;102518.94;5049501;28;20063;-41
2021/04/16 12:59:14;;;;;;;0.70;0.70;;;;;;;18.48;41.70;102522.47;5047973;28;20036;-41
2021/04/16 13:01:40;;;;;;;0.93;0.93;;;;;;;18.49;41.53;102518.69;5054081;28;20487;-41
2021/04/16 13:04:05;;;;;;;1.95;0.80;;;;;;;18.50;41.70;102526.47;5020037;28;20047;-41
2021/04/16 13:06:32;;;;;;;1.08;1.00;;;;;;;18.53;41.51;102517.00;5043880;28;20485;-41
2021/04/16 13:08:58;;;;;;;1.10;0.82;;;;;;;18.54;41.41;102515.91;5035898;28;20055;-42
2021/04/16 13:11:23;;;;;;;1.33;0.82;;;;;;;18.55;40.95;102515.59;5049979;28;20686;-42
2021/04/16 13:13:50;;;;;;;0.85;0.85;;;;;;;18.57;41.07;102518.03;5048556;28;20398;-42
2021/04/16 13:16:15;;;;;;;0.90;0.85;;;;;;;18.57;41.15;102516.13;5046155;28;20041;-41
2021/04/16 13:18:43;;;;;;;1.48;0.55;;;;;;;18.59;40.08;102513.13;5047784;28;20417;-41
2021/04/16 13:21:14;;;;;;;1.05;0.95;;;;;;;18.59;40.47;102511.25;5045348;28;20052;-41
2021/04/16 13:23:40;;;;;;;1.25;0.90;;;;;;;18.63;40.50;102509.56;5031011;28;20107;-43
2021/04/16 13:26:06;;;;;;;2.08;0.80;;;;;;;18.64;40.55;102505.78;5049213;28;20025;-43
2021/04/16 13:28:32;;;;;;;0.70;0.70;;;;;;;18.67;40.56;102504.38;5045707;28;20162;-42
2021/04/16 13:30:57;;;;;;;1.65;0.75;;;;;;;18.67;40.69;102501.69;5045361;28;20049;-44
2021/04/16 13:33:23;;;;;;;0.95;0.73;;;;;;;18.70;40.19;102491.13;5047213;28;20067;-43
2021/04/16 13:35:54;;;;;;;0.80;0.80;;;;;;;18.74;40.23;102491.34;5044973;28;20039;-44